Accueil
METAR-TAF:

METAR-TAF

Aéroports :

Aéroport d'Angers-Loire

Angers, France

latitude: 47-33-37N, longitude: 000-18-44W, altitude: 59 m

Observation

Le bulletin a été fait il y a 19 minutes, à 22:30 UTC
Vent calme
Température 6°C
Humidité 87%
Pression 1031 hPa
Visibilité: 0550 m
bancs de brouillard

METAR: LFJR 232230Z AUTO 00000KT 1400 0550 R26/1500U BCFG NSC 06/04 Q1031

Heure: 00:49 (22:49 UTC)

Prévision

Le bulletin a été fait il y a 11 heures et 49 minutes, à 11:00 UTC
Prévision valable du 23 à 12 UTC au 23 à 21 UTC
Vent 5 kt de nord/nord-ouest
Visibilité 10 km ou plus
pas de nuages en-dessous de 1500 mètres et pas de cumulonimbus.

TAF: LFJR 231100Z 2312/2321 34005KT CAVOK

Observations et prévisions météorologiques de plus de 4000 aéroports (messages METAR et TAF).

Les stations disponibles sont représentées par des disques jaunes et rouges sur la carte.

Passer la souris dessus pour voir le nom de la station.

Cliquer dessus pour voir les observations et prévisions météorologiques.

Pour changer de carte: cliquez sur les boutons verts avec une croix noire pour zoomer, sur le bouton vert avec un tiret pour effectuer un zoom arrière, ou sur les flèches vertes pour les cartes adjacentes.


METAR-TAF: